Time,TemperatureF,DewpointF,PressureIn,WindDirection,WindDirectionDegrees,WindSpeedMPH,WindSpeedGustMPH,Humidity,HourlyPrecipIn,Conditions,Clouds,dailyrainin,SoftwareType,DateUTC
2013-03-24 00:00:00,42.9,38.4,29.84,SSW,197,2.0,2.0,84,0.00,,,0.03,Wunderground v.1.15,2013-03-24 04:00:00,
2013-03-24 00:05:00,42.9,38.4,29.84,SSW,200,2.0,4.0,84,0.00,,,0.03,Wunderground v.1.15,2013-03-24 04:05:00,
2013-03-24 00:10:00,42.9,38.4,29.84,SSW,205,2.0,2.0,84,0.00,,,0.03,Wunderground v.1.15,2013-03-24 04:10:00,
2013-03-24 00:15:00,42.9,38.4,29.84,South,184,3.0,3.0,84,0.00,,,0.03,Wunderground v.1.15,2013-03-24 04:15:00,
2013-03-24 00:20:00,43.0,38.2,29.84,SW,223,4.0,13.0,83,0.00,,,0.03,Wunderground v.1.15,2013-03-24 04:20:00,
2013-03-24 00:25:00,43.1,38.3,29.83,SSW,205,2.0,13.0,83,0.00,,,0.03,Wunderground v.1.15,2013-03-24 04:25:00,
2013-03-24 00:30:00,43.1,38.3,29.83,South,174,1.0,13.0,83,0.00,,,0.03,Wunderground v.1.15,2013-03-24 04:30:00,
2013-03-24 00:35:00,43.1,38.3,29.83,SSW,198,2.0,13.0,83,0.00,,,0.03,Wunderground v.1.15,2013-03-24 04:35:00,
2013-03-24 00:45:00,43.0,38.5,29.84,South,172,4.0,13.0,84,0.00,,,0.03,Wunderground v.1.15,2013-03-24 04:45:00,
2013-03-24 00:50:00,43.0,38.5,29.84,SSW,192,5.0,13.0,84,0.00,,,0.03,Wunderground v.1.15,2013-03-24 04:50:00,
2013-03-24 00:55:00,42.9,38.4,29.84,SSW,198,5.0,13.0,84,0.00,,,0.03,Wunderground v.1.15,2013-03-24 04:55:00,
2013-03-24 01:00:00,42.9,38.7,29.84,South,184,4.0,4.0,85,0.00,,,0.03,Wunderground v.1.15,2013-03-24 05:00:00,
2013-03-24 01:10:00,42.7,38.5,29.84,WSW,257,0.0,13.0,85,0.00,,,0.03,Wunderground v.1.15,2013-03-24 05:10:00,
2013-03-24 01:15:00,42.7,38.5,29.86,SSW,201,1.0,13.0,85,0.00,,,0.00,Wunderground v.1.15,2013-03-24 05:15:00,
2013-03-24 01:20:00,42.7,38.5,29.86,South,188,3.0,13.0,85,0.00,,,0.00,Wunderground v.1.15,2013-03-24 05:20:00,
2013-03-24 01:30:00,42.7,38.5,29.88,SSW,193,5.0,5.0,85,0.00,,,0.00,Wunderground v.1.15,2013-03-24 05:30:00,
2013-03-24 01:35:00,42.7,38.8,29.89,SSW,194,4.0,13.0,86,0.00,,,0.00,Wunderground v.1.15,2013-03-24 05:35:00,
2013-03-24 01:40:00,42.7,39.1,29.87,SSE,159,3.0,3.0,87,0.00,,,0.01,Wunderground v.1.15,2013-03-24 05:40:00,
2013-03-24 01:45:00,42.5,38.9,29.88,SSE,159,1.0,13.0,87,0.00,,,0.01,Wunderground v.1.15,2013-03-24 05:45:00,
2013-03-24 01:50:00,42.3,39.0,29.89,SW,215,0.0,13.0,88,0.00,,,0.01,Wunderground v.1.15,2013-03-24 05:50:00,
2013-03-24 01:55:00,42.1,38.8,29.89,SSE,148,0.0,13.0,88,0.00,,,0.01,Wunderground v.1.15,2013-03-24 05:55:00,
2013-03-24 02:05:00,41.8,39.1,29.88,South,188,1.0,12.0,90,0.00,,,0.02,Wunderground v.1.15,2013-03-24 06:05:00,
2013-03-24 02:15:00,41.4,39.3,29.88,SSW,192,1.0,5.0,92,0.08,,,0.03,Wunderground v.1.15,2013-03-24 06:15:00,
2013-03-24 02:20:00,41.2,39.3,29.86,South,178,1.0,1.0,93,0.05,,,0.03,Wunderground v.1.15,2013-03-24 06:20:00,
2013-03-24 02:25:00,41.1,39.2,29.86,South,180,1.0,12.0,93,0.05,,,0.04,Wunderground v.1.15,2013-03-24 06:25:00,
2013-03-24 02:30:00,41.0,39.4,29.85,SSW,192,0.0,12.0,94,0.09,,,0.05,Wunderground v.1.15,2013-03-24 06:30:00,
2013-03-24 02:35:00,41.0,40.7,29.84,SSW,205,0.0,12.0,99,0.08,,,0.05,Wunderground v.1.15,2013-03-24 06:35:00,
2013-03-24 02:45:00,40.8,39.2,29.83,SSW,211,0.0,12.0,94,0.05,,,0.06,Wunderground v.1.15,2013-03-24 06:45:00,
2013-03-24 02:55:00,40.5,38.9,29.81,SSW,205,0.0,12.0,94,0.07,,,0.07,Wunderground v.1.15,2013-03-24 06:55:00,
2013-03-24 03:00:00,40.3,38.7,29.82,NNW,330,1.0,1.0,94,0.04,,,0.07,Wunderground v.1.15,2013-03-24 07:00:00,
2013-03-24 03:05:00,40.2,38.9,29.81,NW,324,0.0,9.0,95,0.00,,,0.07,Wunderground v.1.15,2013-03-24 07:05:00,
2013-03-24 03:15:00,39.8,38.2,29.80,South,172,1.0,9.0,94,0.00,,,0.07,Wunderground v.1.15,2013-03-24 07:15:00,
2013-03-24 03:25:00,39.7,37.8,29.80,NW,306,2.0,9.0,93,0.00,,,0.08,Wunderground v.1.15,2013-03-24 07:25:00,
2013-03-24 03:35:00,39.7,38.1,29.80,SW,216,0.0,9.0,94,0.05,,,0.09,Wunderground v.1.15,2013-03-24 07:35:00,
2013-03-24 03:45:00,39.5,37.9,29.79,SW,216,0.0,9.0,94,0.04,,,0.09,Wunderground v.1.15,2013-03-24 07:45:00,
2013-03-24 03:50:00,39.5,37.9,29.79,SSW,201,1.0,1.0,94,0.00,,,0.09,Wunderground v.1.15,2013-03-24 07:50:00,
2013-03-24 03:55:00,39.5,37.9,29.79,WSW,246,1.0,9.0,94,0.00,,,0.09,Wunderground v.1.15,2013-03-24 07:55:00,
2013-03-24 04:00:00,39.5,37.9,29.79,SSW,200,0.0,9.0,94,0.00,,,0.09,Wunderground v.1.15,2013-03-24 08:00:00,
2013-03-24 04:05:00,39.5,37.9,29.79,West,269,0.0,9.0,94,0.00,,,0.10,Wunderground v.1.15,2013-03-24 08:05:00,
2013-03-24 04:15:00,39.5,37.9,29.78,WSW,252,0.0,8.0,94,0.05,,,0.11,Wunderground v.1.15,2013-03-24 08:15:00,
2013-03-24 04:20:00,39.5,38.2,29.77,WSW,258,1.0,1.0,95,0.05,,,0.11,Wunderground v.1.15,2013-03-24 08:20:00,
2013-03-24 04:25:00,39.5,37.9,29.77,North,349,1.0,8.0,94,0.05,,,0.11,Wunderground v.1.15,2013-03-24 08:25:00,
2013-03-24 04:30:00,39.5,38.2,29.77,ESE,113,1.0,1.0,95,0.00,,,0.11,Wunderground v.1.15,2013-03-24 08:30:00,
2013-03-24 04:40:00,39.5,38.2,29.76,SSW,192,1.0,1.0,95,0.00,,,0.11,Wunderground v.1.15,2013-03-24 08:40:00,
2013-03-24 04:45:00,39.5,38.2,29.76,SSE,159,1.0,8.0,95,0.00,,,0.11,Wunderground v.1.15,2013-03-24 08:45:00,
2013-03-24 04:50:00,39.5,38.2,29.76,South,190,1.0,1.0,95,0.00,,,0.11,Wunderground v.1.15,2013-03-24 08:50:00,
2013-03-24 04:55:00,39.6,38.3,29.75,SSW,194,0.0,8.0,95,0.00,,,0.12,Wunderground v.1.15,2013-03-24 08:55:00,
2013-03-24 05:05:00,39.6,38.3,29.75,South,190,2.0,10.0,95,0.00,,,0.12,Wunderground v.1.15,2013-03-24 09:05:00,
2013-03-24 05:15:00,39.7,38.4,29.73,SSE,167,1.0,10.0,95,0.00,,,0.13,Wunderground v.1.15,2013-03-24 09:15:00,
2013-03-24 05:20:00,39.7,38.4,29.73,South,183,1.0,1.0,95,0.00,,,0.13,Wunderground v.1.15,2013-03-24 09:20:00,
2013-03-24 05:25:00,39.7,38.7,29.72,South,174,0.0,10.0,96,0.00,,,0.13,Wunderground v.1.15,2013-03-24 09:25:00,
2013-03-24 05:35:00,39.7,38.7,29.70,WSW,245,0.0,10.0,96,0.00,,,0.13,Wunderground v.1.15,2013-03-24 09:35:00,
2013-03-24 05:40:00,39.7,38.7,29.70,SSW,194,1.0,1.0,96,0.00,,,0.14,Wunderground v.1.15,2013-03-24 09:40:00,
2013-03-24 05:45:00,39.8,38.8,29.71,SW,225,1.0,10.0,96,0.00,,,0.14,Wunderground v.1.15,2013-03-24 09:45:00,
2013-03-24 05:50:00,39.9,38.9,29.69,South,178,1.0,1.0,96,0.05,,,0.15,Wunderground v.1.15,2013-03-24 09:50:00,
2013-03-24 05:55:00,40.0,39.0,29.69,WSW,242,1.0,10.0,96,0.05,,,0.15,Wunderground v.1.15,2013-03-24 09:55:00,
2013-03-24 06:00:00,40.0,39.0,29.70,SW,232,0.0,10.0,96,0.06,,,0.16,Wunderground v.1.15,2013-03-24 10:00:00,
2013-03-24 06:05:00,40.0,39.0,29.70,SSW,199,0.0,10.0,96,0.15,,,0.17,Wunderground v.1.15,2013-03-24 10:05:00,
2013-03-24 06:15:00,40.1,39.1,29.69,SW,217,0.0,9.0,96,0.13,,,0.19,Wunderground v.1.15,2013-03-24 10:15:00,
2013-03-24 06:20:00,40.1,39.1,29.68,SW,215,0.0,9.0,96,0.09,,,0.20,Wunderground v.1.15,2013-03-24 10:20:00,
2013-03-24 06:25:00,40.1,39.1,29.67,SW,232,0.0,9.0,96,0.21,,,0.21,Wunderground v.1.15,2013-03-24 10:25:00,
2013-03-24 06:30:00,40.1,39.1,29.67,WSW,238,0.0,9.0,96,0.15,,,0.22,Wunderground v.1.15,2013-03-24 10:30:00,
2013-03-24 06:35:00,40.2,39.2,29.67,WSW,238,0.0,9.0,96,0.11,,,0.23,Wunderground v.1.15,2013-03-24 10:35:00,
2013-03-24 06:40:00,40.1,39.1,29.67,WSW,238,0.0,9.0,96,0.08,,,0.23,Wunderground v.1.15,2013-03-24 10:40:00,
2013-03-24 06:45:00,40.1,39.1,29.67,WSW,238,0.0,9.0,96,0.05,,,0.23,Wunderground v.1.15,2013-03-24 10:45:00,
2013-03-24 06:55:00,40.2,39.2,29.67,NNW,342,0.0,9.0,96,0.15,,,0.25,Wunderground v.1.15,2013-03-24 10:55:00,
2013-03-24 07:00:00,40.3,39.5,29.66,NNW,342,0.0,9.0,97,0.08,,,0.26,Wunderground v.1.15,2013-03-24 11:00:00,
2013-03-24 07:05:00,40.3,39.5,29.66,NNW,342,0.0,9.0,97,0.20,,,0.27,Wunderground v.1.15,2013-03-24 11:05:00,
2013-03-24 07:15:00,40.3,39.5,29.67,NNW,342,1.0,1.0,97,0.24,,,0.31,Wunderground v.1.15,2013-03-24 11:15:00,
2013-03-24 07:25:00,40.1,39.3,29.68,NNW,342,1.0,4.0,97,0.21,,,0.35,Wunderground v.1.15,2013-03-24 11:25:00,
2013-03-24 07:30:00,40.1,39.3,29.69,NNW,343,3.0,3.0,97,0.20,,,0.37,Wunderground v.1.15,2013-03-24 11:30:00,
2013-03-24 07:35:00,40.0,39.2,29.70,NNW,343,2.0,3.0,97,0.25,,,0.40,Wunderground v.1.15,2013-03-24 11:35:00,
2013-03-24 07:40:00,39.9,39.1,29.71,NNW,342,0.0,1.0,97,0.39,,,0.43,Wunderground v.1.15,2013-03-24 11:40:00,
2013-03-24 07:45:00,39.8,39.0,29.72,NNW,342,0.0,1.0,97,0.35,,,0.45,Wunderground v.1.15,2013-03-24 11:45:00,
2013-03-24 07:55:00,39.8,39.0,29.74,SSW,192,0.0,1.0,97,0.40,,,0.51,Wunderground v.1.15,2013-03-24 11:55:00,
2013-03-24 08:05:00,39.9,39.1,29.74,South,171,3.0,3.0,97,0.54,,,0.58,Wunderground v.1.15,2013-03-24 12:05:00,
2013-03-24 08:15:00,39.5,38.7,29.68,SSW,205,2.0,10.0,97,0.28,,,0.64,Wunderground v.1.15,2013-03-24 12:15:00,
2013-03-24 08:25:00,39.4,38.6,29.67,South,185,2.0,6.0,97,0.12,,,0.66,Wunderground v.1.15,2013-03-24 12:25:00,
2013-03-24 08:30:00,39.4,38.6,29.67,SW,227,2.0,6.0,97,0.06,,,0.66,Wunderground v.1.15,2013-03-24 12:30:00,
2013-03-24 08:35:00,39.4,38.6,29.68,West,263,2.0,6.0,97,0.04,,,0.66,Wunderground v.1.15,2013-03-24 12:35:00,
2013-03-24 08:40:00,39.4,38.6,29.68,South,173,3.0,3.0,97,0.00,,,0.66,Wunderground v.1.15,2013-03-24 12:40:00,
2013-03-24 08:45:00,39.3,38.5,29.67,South,176,2.0,6.0,97,0.00,,,0.67,Wunderground v.1.15,2013-03-24 12:45:00,
2013-03-24 08:50:00,39.2,38.4,29.67,SSW,211,1.0,6.0,97,0.00,,,0.67,Wunderground v.1.15,2013-03-24 12:50:00,
2013-03-24 08:55:00,39.1,38.3,29.67,South,177,1.0,6.0,97,0.00,,,0.67,Wunderground v.1.15,2013-03-24 12:55:00,
2013-03-24 09:00:00,38.9,38.1,29.66,SSW,194,2.0,2.0,97,0.00,,,0.67,Wunderground v.1.15,2013-03-24 13:00:00,
2013-03-24 09:10:00,38.8,38.0,29.67,SSW,194,0.0,10.0,97,0.00,,,0.67,Wunderground v.1.15,2013-03-24 13:10:00,
2013-03-24 09:15:00,38.9,38.1,29.67,SSW,208,1.0,10.0,97,0.00,,,0.67,Wunderground v.1.15,2013-03-24 13:15:00,
2013-03-24 09:20:00,38.9,38.1,29.67,SSW,208,1.0,1.0,97,0.00,,,0.67,Wunderground v.1.15,2013-03-24 13:20:00,
2013-03-24 09:25:00,39.1,38.3,29.67,SSW,208,0.0,10.0,97,0.00,,,0.67,Wunderground v.1.15,2013-03-24 13:25:00,
2013-03-24 09:30:00,39.2,38.7,29.67,SSW,208,0.0,10.0,98,0.00,,,0.67,Wunderground v.1.15,2013-03-24 13:30:00,
2013-03-24 09:35:00,39.4,38.9,29.67,SSW,208,0.0,10.0,98,0.00,,,0.67,Wunderground v.1.15,2013-03-24 13:35:00,
2013-03-24 09:40:00,39.7,39.2,29.67,SSW,208,0.0,10.0,98,0.00,,,0.67,Wunderground v.1.15,2013-03-24 13:40:00,
2013-03-24 09:45:00,40.0,39.5,29.67,SSW,208,0.0,10.0,98,0.00,,,0.67,Wunderground v.1.15,2013-03-24 13:45:00,
2013-03-24 09:55:00,39.9,39.4,29.67,West,274,0.0,10.0,98,0.00,,,0.67,Wunderground v.1.15,2013-03-24 13:55:00,
2013-03-24 10:00:00,39.7,38.9,29.67,NW,312,0.0,10.0,97,0.00,,,0.67,Wunderground v.1.15,2013-03-24 14:00:00,
2013-03-24 10:05:00,39.4,38.6,29.67,WSW,243,0.0,10.0,97,0.00,,,0.67,Wunderground v.1.15,2013-03-24 14:05:00,
2013-03-24 10:14:00,39.1,38.3,29.66,WSW,245,0.0,5.0,97,0.00,,,0.67,Wunderground v.1.15,2013-03-24 14:14:00,
2013-03-24 10:20:00,39.1,38.3,29.65,South,191,1.0,1.0,97,0.00,,,0.67,Wunderground v.1.15,2013-03-24 14:20:00,
2013-03-24 10:30:00,39.2,38.7,29.64,SW,224,0.0,5.0,98,0.00,,,0.67,Wunderground v.1.15,2013-03-24 14:30:00,
2013-03-24 10:35:00,39.7,39.2,29.64,NW,315,0.0,5.0,98,0.00,,,0.67,Wunderground v.1.15,2013-03-24 14:35:00,
2013-03-24 10:40:00,39.9,39.4,29.64,NNW,329,0.0,5.0,98,0.00,,,0.67,Wunderground v.1.15,2013-03-24 14:40:00,
2013-03-24 10:45:00,40.0,39.5,29.63,South,179,1.0,7.0,98,0.00,,,0.67,Wunderground v.1.15,2013-03-24 14:45:00,
2013-03-24 10:55:00,39.3,38.5,29.64,South,185,5.0,5.0,97,0.00,,,0.67,Wunderground v.1.15,2013-03-24 14:55:00,
2013-03-24 11:00:00,39.2,38.7,29.62,SSW,205,5.0,5.0,98,0.00,,,0.67,Wunderground v.1.15,2013-03-24 15:00:00,
2013-03-24 11:05:00,39.1,38.3,29.62,SSW,198,5.0,7.0,97,0.00,,,0.68,Wunderground v.1.15,2013-03-24 15:05:00,
2013-03-24 11:15:00,39.0,38.2,29.63,SSW,205,3.0,7.0,97,0.00,,,0.68,Wunderground v.1.15,2013-03-24 15:15:00,
2013-03-24 11:20:00,39.2,38.7,29.64,South,190,3.0,7.0,98,0.04,,,0.69,Wunderground v.1.15,2013-03-24 15:20:00,
2013-03-24 11:25:00,39.1,38.3,29.64,South,169,5.0,7.0,97,0.04,,,0.69,Wunderground v.1.15,2013-03-24 15:25:00,
2013-03-24 11:30:00,39.1,38.6,29.64,SSW,200,5.0,7.0,98,0.04,,,0.69,Wunderground v.1.15,2013-03-24 15:30:00,
2013-03-24 11:40:00,39.2,38.7,29.64,SSW,200,3.0,3.0,98,0.00,,,0.70,Wunderground v.1.15,2013-03-24 15:40:00,
2013-03-24 11:45:00,39.4,38.9,29.63,South,190,2.0,7.0,98,0.00,,,0.70,Wunderground v.1.15,2013-03-24 15:45:00,
2013-03-24 11:50:00,39.7,39.2,29.63,South,188,2.0,2.0,98,0.00,,,0.70,Wunderground v.1.15,2013-03-24 15:50:00,
2013-03-24 11:55:00,40.2,39.7,29.63,South,186,2.0,5.0,98,0.06,,,0.71,Wunderground v.1.15,2013-03-24 15:55:00,
2013-03-24 12:05:00,40.5,40.0,29.63,SW,228,3.0,11.0,98,0.04,,,0.71,Wunderground v.1.15,2013-03-24 16:05:00,
2013-03-24 12:15:00,40.4,39.9,29.62,South,188,2.0,11.0,98,0.00,,,0.71,Wunderground v.1.15,2013-03-24 16:15:00,
2013-03-24 12:20:00,40.3,39.8,29.61,South,180,3.0,3.0,98,0.00,,,0.71,Wunderground v.1.15,2013-03-24 16:20:00,
2013-03-24 12:25:00,40.3,39.8,29.61,South,190,4.0,8.0,98,0.00,,,0.71,Wunderground v.1.15,2013-03-24 16:25:00,
2013-03-24 12:30:00,40.3,39.8,29.62,South,186,5.0,11.0,98,0.00,,,0.71,Wunderground v.1.15,2013-03-24 16:30:00,
2013-03-24 12:40:00,39.7,39.2,29.62,South,188,5.0,11.0,98,0.00,,,0.72,Wunderground v.1.15,2013-03-24 16:40:00,
2013-03-24 12:50:00,39.4,38.9,29.62,SSE,161,2.0,2.0,98,0.00,,,0.72,Wunderground v.1.15,2013-03-24 16:50:00,
2013-03-24 12:55:00,39.3,38.8,29.62,South,189,2.0,5.0,98,0.00,,,0.72,Wunderground v.1.15,2013-03-24 16:55:00,
2013-03-24 13:00:00,39.3,38.8,29.62,SSW,196,2.0,2.0,98,0.00,,,0.72,Wunderground v.1.15,2013-03-24 17:00:00,
2013-03-24 13:05:00,39.1,38.6,29.62,SSW,202,3.0,3.0,98,0.00,,,0.73,Wunderground v.1.15,2013-03-24 17:05:00,
2013-03-24 13:15:00,38.9,38.4,29.62,South,190,3.0,11.0,98,0.00,,,0.73,Wunderground v.1.15,2013-03-24 17:15:00,
2013-03-24 13:20:00,39.0,38.5,29.62,South,179,2.0,2.0,98,0.00,,,0.73,Wunderground v.1.15,2013-03-24 17:20:00,
2013-03-24 13:25:00,39.0,38.5,29.61,South,181,2.0,11.0,98,0.00,,,0.73,Wunderground v.1.15,2013-03-24 17:25:00,
2013-03-24 13:34:00,39.2,38.7,29.61,SSW,207,3.0,11.0,98,0.00,,,0.73,Wunderground v.1.15,2013-03-24 17:34:00,
2013-03-24 13:40:00,39.3,38.8,29.61,South,187,2.0,2.0,98,0.00,,,0.73,Wunderground v.1.15,2013-03-24 17:40:00,
2013-03-24 13:45:00,39.5,39.0,29.60,SW,231,1.0,11.0,98,0.00,,,0.73,Wunderground v.1.15,2013-03-24 17:45:00,
2013-03-24 13:50:00,39.8,39.3,29.60,SSW,196,1.0,11.0,98,0.00,,,0.73,Wunderground v.1.15,2013-03-24 17:50:00,
2013-03-24 13:55:00,39.9,39.4,29.60,SSW,212,1.0,11.0,98,0.00,,,0.73,Wunderground v.1.15,2013-03-24 17:55:00,
2013-03-24 14:00:00,40.1,39.6,29.60,SSW,192,2.0,11.0,98,0.00,,,0.73,Wunderground v.1.15,2013-03-24 18:00:00,
2013-03-24 14:05:00,40.0,39.5,29.60,SSW,196,2.0,11.0,98,0.00,,,0.73,Wunderground v.1.15,2013-03-24 18:05:00,
2013-03-24 14:15:00,40.2,39.7,29.58,SSW,196,3.0,10.0,98,0.00,,,0.73,Wunderground v.1.15,2013-03-24 18:15:00,
2013-03-24 14:20:00,40.6,40.1,29.58,South,189,2.0,10.0,98,0.00,,,0.73,Wunderground v.1.15,2013-03-24 18:20:00,
2013-03-24 14:30:00,40.8,40.3,29.57,South,189,2.0,2.0,98,0.00,,,0.73,Wunderground v.1.15,2013-03-24 18:30:00,
2013-03-24 14:35:00,41.2,40.7,29.57,SW,228,0.0,10.0,98,0.00,,,0.73,Wunderground v.1.15,2013-03-24 18:35:00,
2013-03-24 14:40:00,41.0,40.5,29.56,South,178,2.0,10.0,98,0.00,,,0.73,Wunderground v.1.15,2013-03-24 18:40:00,
2013-03-24 14:45:00,40.7,40.2,29.57,SSW,194,3.0,10.0,98,0.00,,,0.73,Wunderground v.1.15,2013-03-24 18:45:00,
2013-03-24 14:50:00,41.0,40.5,29.56,SSW,194,3.0,3.0,98,0.00,,,0.73,Wunderground v.1.15,2013-03-24 18:50:00,
2013-03-24 14:55:00,41.1,40.6,29.56,SSW,198,1.0,10.0,98,0.00,,,0.73,Wunderground v.1.15,2013-03-24 18:55:00,
2013-03-24 15:00:00,40.9,40.4,29.57,SSW,196,3.0,3.0,98,0.00,,,0.73,Wunderground v.1.15,2013-03-24 19:00:00,
2013-03-24 15:05:00,40.9,40.4,29.56,South,191,3.0,9.0,98,0.00,,,0.73,Wunderground v.1.15,2013-03-24 19:05:00,
2013-03-24 15:15:00,40.8,40.3,29.53,South,186,3.0,9.0,98,0.00,,,0.73,Wunderground v.1.15,2013-03-24 19:15:00,
2013-03-24 15:20:00,40.9,40.4,29.53,South,187,5.0,9.0,98,0.00,,,0.73,Wunderground v.1.15,2013-03-24 19:20:00,
2013-03-24 15:25:00,40.9,40.4,29.52,South,171,5.0,9.0,98,0.00,,,0.73,Wunderground v.1.15,2013-03-24 19:25:00,
2013-03-24 15:30:00,41.0,40.5,29.52,SSW,196,4.0,9.0,98,0.00,,,0.73,Wunderground v.1.15,2013-03-24 19:30:00,
2013-03-24 15:40:00,41.5,41.0,29.52,South,185,6.0,6.0,98,0.00,,,0.73,Wunderground v.1.15,2013-03-24 19:40:00,
2013-03-24 15:50:00,42.3,41.8,29.51,SSW,193,4.0,9.0,98,0.00,,,0.73,Wunderground v.1.15,2013-03-24 19:50:00,
2013-03-24 15:55:00,42.8,42.5,29.50,SSW,199,4.0,9.0,99,0.00,,,0.73,Wunderground v.1.15,2013-03-24 19:55:00,
2013-03-24 16:00:00,43.3,43.0,29.51,South,182,5.0,5.0,99,0.00,,,0.73,Wunderground v.1.15,2013-03-24 20:00:00,
2013-03-24 16:05:00,43.6,43.1,29.50,South,190,5.0,8.0,98,0.00,,,0.73,Wunderground v.1.15,2013-03-24 20:05:00,
2013-03-24 16:15:00,44.0,43.5,29.50,South,190,6.0,13.0,98,0.00,,,0.73,Wunderground v.1.15,2013-03-24 20:15:00,
2013-03-24 16:24:00,43.6,42.3,29.49,SSW,203,6.0,15.0,95,0.00,,,0.73,Wunderground v.1.15,2013-03-24 20:24:00,
2013-03-24 16:30:00,43.4,41.8,29.50,South,189,8.0,8.0,94,0.00,,,0.73,Wunderground v.1.15,2013-03-24 20:30:00,
2013-03-24 16:35:00,43.2,41.6,29.49,SSW,205,7.0,13.0,94,0.00,,,0.73,Wunderground v.1.15,2013-03-24 20:35:00,
2013-03-24 16:40:00,43.1,41.2,29.49,SSE,167,6.0,6.0,93,0.00,,,0.73,Wunderground v.1.15,2013-03-24 20:40:00,
2013-03-24 16:45:00,43.2,41.3,29.49,SSW,198,5.0,8.0,93,0.00,,,0.73,Wunderground v.1.15,2013-03-24 20:45:00,
2013-03-24 16:50:00,43.1,40.9,29.49,SSW,211,5.0,13.0,92,0.00,,,0.73,Wunderground v.1.15,2013-03-24 20:50:00,
2013-03-24 16:55:00,43.3,41.4,29.49,South,170,5.0,13.0,93,0.00,,,0.73,Wunderground v.1.15,2013-03-24 20:55:00,
2013-03-24 17:00:00,43.8,41.9,29.49,South,178,4.0,4.0,93,0.00,,,0.73,Wunderground v.1.15,2013-03-24 21:00:00,
2013-03-24 17:05:00,43.8,41.3,29.49,South,178,4.0,6.0,91,0.00,,,0.73,Wunderground v.1.15,2013-03-24 21:05:00,
2013-03-24 17:15:00,43.2,40.5,29.49,SSW,203,5.0,18.0,90,0.00,,,0.73,Wunderground v.1.15,2013-03-24 21:15:00,
2013-03-24 17:25:00,42.4,40.0,29.49,South,185,5.0,18.0,91,0.00,,,0.73,Wunderground v.1.15,2013-03-24 21:25:00,
2013-03-24 17:30:00,41.9,39.5,29.49,South,172,4.0,18.0,91,0.00,,,0.73,Wunderground v.1.15,2013-03-24 21:30:00,
2013-03-24 17:35:00,41.6,39.4,29.49,South,184,3.0,18.0,92,0.00,,,0.73,Wunderground v.1.15,2013-03-24 21:35:00,
2013-03-24 17:40:00,41.4,39.3,29.49,SSW,201,5.0,18.0,92,0.00,,,0.73,Wunderground v.1.15,2013-03-24 21:40:00,
2013-03-24 17:45:00,41.2,39.3,29.49,South,178,7.0,18.0,93,0.00,,,0.73,Wunderground v.1.15,2013-03-24 21:45:00,
2013-03-24 17:54:00,40.8,39.2,29.48,South,182,5.0,18.0,94,0.00,,,0.73,Wunderground v.1.15,2013-03-24 21:54:00,
2013-03-24 18:00:00,40.7,39.1,29.48,SSE,165,6.0,18.0,94,0.00,,,0.73,Wunderground v.1.15,2013-03-24 22:00:00,
2013-03-24 18:05:00,40.7,38.8,29.48,South,190,6.0,18.0,93,0.00,,,0.73,Wunderground v.1.15,2013-03-24 22:05:00,
2013-03-24 18:14:00,40.4,38.5,29.48,South,175,6.0,13.0,93,0.00,,,0.73,Wunderground v.1.15,2013-03-24 22:14:00,
2013-03-24 18:20:00,40.3,38.7,29.49,SSW,194,5.0,5.0,94,0.00,,,0.73,Wunderground v.1.15,2013-03-24 22:20:00,
2013-03-24 18:25:00,40.2,38.6,29.48,South,181,5.0,13.0,94,0.00,,,0.73,Wunderground v.1.15,2013-03-24 22:25:00,
2013-03-24 18:30:00,40.1,38.5,29.48,SSW,209,6.0,13.0,94,0.00,,,0.73,Wunderground v.1.15,2013-03-24 22:30:00,
2013-03-24 18:35:00,40.0,38.4,29.47,SSW,192,6.0,13.0,94,0.00,,,0.73,Wunderground v.1.15,2013-03-24 22:35:00,
2013-03-24 18:40:00,39.7,38.1,29.47,SSW,202,5.0,13.0,94,0.00,,,0.73,Wunderground v.1.15,2013-03-24 22:40:00,
2013-03-24 18:45:00,39.5,37.9,29.48,SSW,193,5.0,13.0,94,0.00,,,0.73,Wunderground v.1.15,2013-03-24 22:45:00,
2013-03-24 18:50:00,39.3,37.7,29.49,SSE,157,5.0,5.0,94,0.00,,,0.73,Wunderground v.1.15,2013-03-24 22:50:00,
2013-03-24 19:00:00,39.0,37.4,29.50,SSE,167,5.0,13.0,94,0.00,,,0.73,Wunderground v.1.15,2013-03-24 23:00:00,
2013-03-24 19:05:00,38.9,37.6,29.49,SW,221,5.0,21.0,95,0.00,,,0.73,Wunderground v.1.15,2013-03-24 23:05:00,
2013-03-24 19:15:00,38.7,37.4,29.49,SSW,205,5.0,10.0,95,0.00,,,0.73,Wunderground v.1.15,2013-03-24 23:15:00,
2013-03-24 19:20:00,38.6,37.3,29.49,South,184,5.0,21.0,95,0.00,,,0.73,Wunderground v.1.15,2013-03-24 23:20:00,
2013-03-24 19:30:00,38.5,37.2,29.48,South,189,4.0,4.0,95,0.00,,,0.73,Wunderground v.1.15,2013-03-24 23:30:00,
2013-03-24 19:40:00,38.8,37.8,29.48,SSE,152,5.0,21.0,96,0.00,,,0.73,Wunderground v.1.15,2013-03-24 23:40:00,
2013-03-24 19:45:00,38.9,37.9,29.49,South,180,6.0,21.0,96,0.00,,,0.73,Wunderground v.1.15,2013-03-24 23:45:00,
2013-03-24 19:50:00,38.6,37.3,29.49,South,180,5.0,21.0,95,0.00,,,0.73,Wunderground v.1.15,2013-03-24 23:50:00,
2013-03-24 19:55:00,38.5,37.2,29.50,South,173,5.0,21.0,95,0.00,,,0.73,Wunderground v.1.15,2013-03-24 23:55:00,
2013-03-24 20:05:00,38.4,37.4,29.50,SSE,148,2.0,22.0,96,0.00,,,0.73,Wunderground v.1.15,2013-03-25 00:05:00,
2013-03-24 20:15:00,38.3,37.3,29.48,South,173,3.0,22.0,96,0.00,,,0.73,Wunderground v.1.15,2013-03-25 00:15:00,
2013-03-24 20:20:00,38.3,37.3,29.49,SSW,193,4.0,22.0,96,0.00,,,0.73,Wunderground v.1.15,2013-03-25 00:20:00,
2013-03-24 20:30:00,38.1,37.1,29.50,South,183,5.0,5.0,96,0.00,,,0.73,Wunderground v.1.15,2013-03-25 00:30:00,
2013-03-24 20:35:00,38.0,37.0,29.49,WNW,287,4.0,22.0,96,0.00,,,0.73,Wunderground v.1.15,2013-03-25 00:35:00,
2013-03-24 20:40:00,37.9,36.9,29.48,SW,230,2.0,22.0,96,0.00,,,0.73,Wunderground v.1.15,2013-03-25 00:40:00,
2013-03-24 20:45:00,37.8,36.8,29.48,SW,221,1.0,22.0,96,0.00,,,0.73,Wunderground v.1.15,2013-03-25 00:45:00,
2013-03-24 20:50:00,37.8,37.0,29.48,SSW,196,2.0,22.0,97,0.00,,,0.73,Wunderground v.1.15,2013-03-25 00:50:00,
2013-03-24 20:55:00,37.8,37.0,29.50,SSW,207,3.0,22.0,97,0.00,,,0.73,Wunderground v.1.15,2013-03-25 00:55:00,
2013-03-24 21:05:00,37.8,37.0,29.50,SSW,193,4.0,11.0,97,0.00,,,0.73,Wunderground v.1.15,2013-03-25 01:05:00,
2013-03-24 21:15:00,37.8,37.0,29.50,South,188,6.0,11.0,97,0.00,,,0.73,Wunderground v.1.15,2013-03-25 01:15:00,
2013-03-24 21:20:00,37.8,37.0,29.50,ESE,103,5.0,5.0,97,0.00,,,0.73,Wunderground v.1.15,2013-03-25 01:20:00,
2013-03-24 21:25:00,37.8,37.0,29.50,South,178,5.0,11.0,97,0.00,,,0.74,Wunderground v.1.15,2013-03-25 01:25:00,
2013-03-24 21:30:00,37.7,36.9,29.50,South,190,6.0,11.0,97,0.00,,,0.74,Wunderground v.1.15,2013-03-25 01:30:00,
2013-03-24 21:40:00,37.6,36.8,29.51,South,185,3.0,11.0,97,0.00,,,0.74,Wunderground v.1.15,2013-03-25 01:40:00,
2013-03-24 21:45:00,37.5,36.7,29.51,South,185,2.0,11.0,97,0.00,,,0.74,Wunderground v.1.15,2013-03-25 01:45:00,
2013-03-24 21:50:00,37.5,36.7,29.51,South,185,3.0,3.0,97,0.00,,,0.74,Wunderground v.1.15,2013-03-25 01:50:00,
2013-03-24 22:00:00,37.5,36.7,29.52,South,182,3.0,3.0,97,0.00,,,0.74,Wunderground v.1.15,2013-03-25 02:00:00,
2013-03-24 22:05:00,37.5,36.7,29.52,South,186,3.0,4.0,97,0.00,,,0.75,Wunderground v.1.15,2013-03-25 02:05:00,
2013-03-24 22:15:00,37.4,36.6,29.53,South,176,2.0,12.0,97,0.00,,,0.75,Wunderground v.1.15,2013-03-25 02:15:00,
2013-03-24 22:20:00,37.5,36.7,29.54,South,177,0.0,12.0,97,0.00,,,0.75,Wunderground v.1.15,2013-03-25 02:20:00,
2013-03-24 22:25:00,37.5,37.0,29.54,WNW,290,0.0,12.0,98,0.00,,,0.76,Wunderground v.1.15,2013-03-25 02:25:00,
2013-03-24 22:30:00,37.6,37.1,29.54,WNW,290,0.0,12.0,98,0.12,,,0.77,Wunderground v.1.15,2013-03-25 02:30:00,
2013-03-24 22:35:00,37.5,37.0,29.54,WNW,290,0.0,12.0,98,0.26,,,0.79,Wunderground v.1.15,2013-03-25 02:35:00,
2013-03-24 22:40:00,37.3,36.5,29.53,WNW,286,0.0,12.0,97,0.23,,,0.81,Wunderground v.1.15,2013-03-25 02:40:00,
2013-03-24 22:50:00,37.2,36.4,29.54,South,184,1.0,1.0,97,0.10,,,0.83,Wunderground v.1.15,2013-03-25 02:50:00,
2013-03-24 22:55:00,37.2,36.4,29.54,South,185,1.0,4.0,97,0.25,,,0.85,Wunderground v.1.15,2013-03-25 02:55:00,
2013-03-24 23:05:00,37.2,36.4,29.55,SSW,194,2.0,2.0,97,0.14,,,0.88,Wunderground v.1.15,2013-03-25 03:05:00,
2013-03-24 23:15:00,37.3,36.8,29.56,SSW,192,2.0,5.0,98,0.10,,,0.90,Wunderground v.1.15,2013-03-25 03:15:00,
2013-03-24 23:20:00,37.3,36.8,29.52,South,191,2.0,2.0,98,0.09,,,0.91,Wunderground v.1.15,2013-03-25 03:20:00,
2013-03-24 23:30:00,36.4,35.6,29.52,SE,145,0.0,5.0,97,0.05,,,0.91,Wunderground v.1.15,2013-03-25 03:30:00,
2013-03-24 23:35:00,36.1,35.3,29.52,SE,145,0.0,5.0,97,0.04,,,0.91,Wunderground v.1.15,2013-03-25 03:35:00,
2013-03-24 23:40:00,36.0,35.2,29.52,SSE,154,0.0,5.0,97,0.00,,,0.91,Wunderground v.1.15,2013-03-25 03:40:00,
2013-03-24 23:45:00,35.8,35.0,29.51,SSE,153,0.0,5.0,97,0.00,,,0.91,Wunderground v.1.15,2013-03-25 03:45:00,
2013-03-24 23:50:00,35.7,34.9,29.52,SSW,193,0.0,5.0,97,0.00,,,0.91,Wunderground v.1.15,2013-03-25 03:50:00,
2013-03-24 23:59:00,35.5,34.7,29.53,SSW,193,0.0,5.0,97,0.00,,,0.91,Wunderground v.1.15,2013-03-25 03:59:00,